sensor_id;sensor_type;location;lat;lon;timestamp;temperature;humidity
18041;DHT22;9145;48.588;9.250;2023-05-10T00:01:20;14.30;99.90
18041;DHT22;9145;48.588;9.250;2023-05-10T00:03:47;14.30;99.90
18041;DHT22;9145;48.588;9.250;2023-05-10T00:06:14;14.30;99.90
18041;DHT22;9145;48.588;9.250;2023-05-10T00:08:41;14.30;99.90
18041;DHT22;9145;48.588;9.250;2023-05-10T00:11:08;14.20;99.90
18041;DHT22;9145;48.588;9.250;2023-05-10T00:13:36;14.20;99.90
18041;DHT22;9145;48.588;9.250;2023-05-10T00:16:03;14.20;99.90
18041;DHT22;9145;48.588;9.250;2023-05-10T00:18:30;14.30;99.90
18041;DHT22;9145;48.588;9.250;2023-05-10T00:20:57;14.20;99.90
18041;DHT22;9145;48.588;9.250;2023-05-10T00:23:24;14.20;99.90
18041;DHT22;9145;48.588;9.250;2023-05-10T00:25:51;14.20;99.90
18041;DHT22;9145;48.588;9.250;2023-05-10T00:28:18;14.10;99.90
18041;DHT22;9145;48.588;9.250;2023-05-10T00:30:46;14.10;99.90
18041;DHT22;9145;48.588;9.250;2023-05-10T00:33:13;14.10;99.90
18041;DHT22;9145;48.588;9.250;2023-05-10T00:35:39;14.10;99.90
18041;DHT22;9145;48.588;9.250;2023-05-10T00:38:06;14.00;99.90
18041;DHT22;9145;48.588;9.250;2023-05-10T00:40:35;13.90;99.90
18041;DHT22;9145;48.588;9.250;2023-05-10T00:43:02;13.80;99.90
18041;DHT22;9145;48.588;9.250;2023-05-10T00:45:29;13.90;99.90
18041;DHT22;9145;48.588;9.250;2023-05-10T00:47:58;13.90;99.90
18041;DHT22;9145;48.588;9.250;2023-05-10T00:50:25;13.90;99.90
18041;DHT22;9145;48.588;9.250;2023-05-10T00:52:52;13.80;99.90
18041;DHT22;9145;48.588;9.250;2023-05-10T00:55:20;13.90;99.90
18041;DHT22;9145;48.588;9.250;2023-05-10T00:57:47;13.90;99.90
18041;DHT22;9145;48.588;9.250;2023-05-10T01:00:14;13.90;99.90
18041;DHT22;9145;48.588;9.250;2023-05-10T01:02:44;13.90;99.90
18041;DHT22;9145;48.588;9.250;2023-05-10T01:05:13;13.90;99.90
18041;DHT22;9145;48.588;9.250;2023-05-10T01:07:40;13.90;99.90
18041;DHT22;9145;48.588;9.250;2023-05-10T01:10:08;13.80;99.90
18041;DHT22;9145;48.588;9.250;2023-05-10T01:12:38;13.80;99.90
18041;DHT22;9145;48.588;9.250;2023-05-10T01:15:07;13.90;99.90
18041;DHT22;9145;48.588;9.250;2023-05-10T01:17:35;13.90;99.90
18041;DHT22;9145;48.588;9.250;2023-05-10T01:20:05;14.00;99.90
18041;DHT22;9145;48.588;9.250;2023-05-10T01:22:50;14.00;99.90
18041;DHT22;9145;48.588;9.250;2023-05-10T01:25:40;14.00;99.90
18041;DHT22;9145;48.588;9.250;2023-05-10T01:28:34;14.10;99.90
18041;DHT22;9145;48.588;9.250;2023-05-10T01:31:27;14.10;99.90
18041;DHT22;9145;48.588;9.250;2023-05-10T01:34:01;13.90;99.90
18041;DHT22;9145;48.588;9.250;2023-05-10T01:36:31;14.00;99.90
18041;DHT22;9145;48.588;9.250;2023-05-10T01:39:04;14.00;99.90
18041;DHT22;9145;48.588;9.250;2023-05-10T01:41:41;13.90;99.90
18041;DHT22;9145;48.588;9.250;2023-05-10T01:44:16;13.90;99.90
18041;DHT22;9145;48.588;9.250;2023-05-10T01:46:47;13.90;99.90
18041;DHT22;9145;48.588;9.250;2023-05-10T01:49:22;13.90;99.90
18041;DHT22;9145;48.588;9.250;2023-05-10T01:51:51;13.80;99.90
18041;DHT22;9145;48.588;9.250;2023-05-10T01:54:21;13.80;99.90
18041;DHT22;9145;48.588;9.250;2023-05-10T01:56:55;13.80;99.90
18041;DHT22;9145;48.588;9.250;2023-05-10T01:59:25;13.80;99.90
18041;DHT22;9145;48.588;9.250;2023-05-10T02:01:54;13.80;99.90
18041;DHT22;9145;48.588;9.250;2023-05-10T02:04:23;13.90;99.90
18041;DHT22;9145;48.588;9.250;2023-05-10T02:06:53;13.90;99.90
18041;DHT22;9145;48.588;9.250;2023-05-10T02:09:20;13.90;99.90
18041;DHT22;9145;48.588;9.250;2023-05-10T02:11:48;13.90;99.90
18041;DHT22;9145;48.588;9.250;2023-05-10T02:14:16;14.00;99.90
18041;DHT22;9145;48.588;9.250;2023-05-10T02:16:45;14.00;99.90
18041;DHT22;9145;48.588;9.250;2023-05-10T02:19:13;13.90;99.90
18041;DHT22;9145;48.588;9.250;2023-05-10T02:21:43;13.90;99.90
18041;DHT22;9145;48.588;9.250;2023-05-10T02:24:11;13.90;99.90
18041;DHT22;9145;48.588;9.250;2023-05-10T02:26:38;13.70;99.90
18041;DHT22;9145;48.588;9.250;2023-05-10T02:29:06;13.60;99.90
18041;DHT22;9145;48.588;9.250;2023-05-10T02:31:33;13.50;99.90
18041;DHT22;9145;48.588;9.250;2023-05-10T02:34:01;13.50;99.90
18041;DHT22;9145;48.588;9.250;2023-05-10T02:36:29;13.30;99.90
18041;DHT22;9145;48.588;9.250;2023-05-10T02:39:00;13.40;99.90
18041;DHT22;9145;48.588;9.250;2023-05-10T02:41:28;13.40;99.90
18041;DHT22;9145;48.588;9.250;2023-05-10T02:43:59;13.50;99.90
18041;DHT22;9145;48.588;9.250;2023-05-10T02:46:28;13.50;99.90
18041;DHT22;9145;48.588;9.250;2023-05-10T02:48:55;13.50;99.90
18041;DHT22;9145;48.588;9.250;2023-05-10T02:51:24;13.50;99.90
18041;DHT22;9145;48.588;9.250;2023-05-10T02:53:53;13.50;99.90
18041;DHT22;9145;48.588;9.250;2023-05-10T02:56:25;13.40;99.90
18041;DHT22;9145;48.588;9.250;2023-05-10T02:58:55;13.30;99.90
18041;DHT22;9145;48.588;9.250;2023-05-10T03:01:22;13.30;99.90
18041;DHT22;9145;48.588;9.250;2023-05-10T03:03:49;13.30;99.90
18041;DHT22;9145;48.588;9.250;2023-05-10T03:06:15;13.20;99.90
18041;DHT22;9145;48.588;9.250;2023-05-10T03:08:43;13.30;99.90
18041;DHT22;9145;48.588;9.250;2023-05-10T03:11:28;13.30;99.90
18041;DHT22;9145;48.588;9.250;2023-05-10T03:14:08;13.20;99.90
18041;DHT22;9145;48.588;9.250;2023-05-10T03:16:42;13.20;99.90
18041;DHT22;9145;48.588;9.250;2023-05-10T03:19:16;13.20;99.90
18041;DHT22;9145;48.588;9.250;2023-05-10T03:21:49;13.20;99.90
18041;DHT22;9145;48.588;9.250;2023-05-10T03:24:20;13.20;99.90
18041;DHT22;9145;48.588;9.250;2023-05-10T03:26:49;13.10;99.90
18041;DHT22;9145;48.588;9.250;2023-05-10T03:29:17;13.10;99.90
18041;DHT22;9145;48.588;9.250;2023-05-10T03:31:44;13.10;99.90
18041;DHT22;9145;48.588;9.250;2023-05-10T03:34:11;13.00;99.90
18041;DHT22;9145;48.588;9.250;2023-05-10T03:36:38;13.00;99.90
18041;DHT22;9145;48.588;9.250;2023-05-10T03:39:05;12.90;99.90
18041;DHT22;9145;48.588;9.250;2023-05-10T03:41:32;12.90;99.90
18041;DHT22;9145;48.588;9.250;2023-05-10T03:44:00;12.90;99.90
18041;DHT22;9145;48.588;9.250;2023-05-10T03:46:27;12.90;99.90
18041;DHT22;9145;48.588;9.250;2023-05-10T03:48:54;12.80;99.90
18041;DHT22;9145;48.588;9.250;2023-05-10T03:51:21;12.80;99.90
18041;DHT22;9145;48.588;9.250;2023-05-10T03:53:47;12.70;99.90
18041;DHT22;9145;48.588;9.250;2023-05-10T03:56:14;12.70;99.90
18041;DHT22;9145;48.588;9.250;2023-05-10T03:58:41;12.70;99.90
18041;DHT22;9145;48.588;9.250;2023-05-10T04:01:09;12.70;99.90
18041;DHT22;9145;48.588;9.250;2023-05-10T04:03:36;12.70;99.90
18041;DHT22;9145;48.588;9.250;2023-05-10T04:06:04;12.80;99.90
18041;DHT22;9145;48.588;9.250;2023-05-10T04:08:31;12.70;99.90
18041;DHT22;9145;48.588;9.250;2023-05-10T04:11:05;12.70;99.90
18041;DHT22;9145;48.588;9.250;2023-05-10T04:13:33;12.70;99.90
18041;DHT22;9145;48.588;9.250;2023-05-10T04:16:00;12.70;99.90
18041;DHT22;9145;48.588;9.250;2023-05-10T04:18:28;12.70;99.90
18041;DHT22;9145;48.588;9.250;2023-05-10T04:20:55;12.70;99.90
18041;DHT22;9145;48.588;9.250;2023-05-10T04:23:22;12.70;99.90
18041;DHT22;9145;48.588;9.250;2023-05-10T04:25:49;12.80;99.90
18041;DHT22;9145;48.588;9.250;2023-05-10T04:28:15;12.90;99.90
18041;DHT22;9145;48.588;9.250;2023-05-10T04:30:42;12.90;99.90
18041;DHT22;9145;48.588;9.250;2023-05-10T04:33:09;13.00;99.90
18041;DHT22;9145;48.588;9.250;2023-05-10T04:35:37;13.00;99.90
18041;DHT22;9145;48.588;9.250;2023-05-10T04:38:05;13.10;99.90
18041;DHT22;9145;48.588;9.250;2023-05-10T04:40:32;13.10;99.90
18041;DHT22;9145;48.588;9.250;2023-05-10T04:42:59;13.10;99.90
18041;DHT22;9145;48.588;9.250;2023-05-10T04:45:26;13.20;99.90
18041;DHT22;9145;48.588;9.250;2023-05-10T04:47:53;13.20;99.90
18041;DHT22;9145;48.588;9.250;2023-05-10T04:50:20;13.30;99.90
18041;DHT22;9145;48.588;9.250;2023-05-10T04:52:48;13.30;99.90
18041;DHT22;9145;48.588;9.250;2023-05-10T04:55:15;13.30;99.90
18041;DHT22;9145;48.588;9.250;2023-05-10T04:57:42;13.30;99.90
18041;DHT22;9145;48.588;9.250;2023-05-10T05:00:10;13.30;99.90
18041;DHT22;9145;48.588;9.250;2023-05-10T05:02:37;13.40;99.90
18041;DHT22;9145;48.588;9.250;2023-05-10T05:05:04;13.30;99.90
18041;DHT22;9145;48.588;9.250;2023-05-10T05:07:31;13.40;99.90
18041;DHT22;9145;48.588;9.250;2023-05-10T05:09:59;13.40;99.90
18041;DHT22;9145;48.588;9.250;2023-05-10T05:12:26;13.50;99.90
18041;DHT22;9145;48.588;9.250;2023-05-10T05:14:53;13.50;99.90
18041;DHT22;9145;48.588;9.250;2023-05-10T05:17:20;13.50;99.90
18041;DHT22;9145;48.588;9.250;2023-05-10T05:19:47;13.50;99.90
18041;DHT22;9145;48.588;9.250;2023-05-10T05:22:13;13.50;99.90
18041;DHT22;9145;48.588;9.250;2023-05-10T05:24:40;13.50;99.90
18041;DHT22;9145;48.588;9.250;2023-05-10T05:27:08;13.40;99.90
18041;DHT22;9145;48.588;9.250;2023-05-10T05:29:35;13.40;99.90
18041;DHT22;9145;48.588;9.250;2023-05-10T05:32:02;13.40;99.90
18041;DHT22;9145;48.588;9.250;2023-05-10T05:34:29;13.40;99.90
18041;DHT22;9145;48.588;9.250;2023-05-10T05:36:56;13.40;99.90
18041;DHT22;9145;48.588;9.250;2023-05-10T05:39:23;13.40;99.90
18041;DHT22;9145;48.588;9.250;2023-05-10T05:41:50;13.40;99.90
18041;DHT22;9145;48.588;9.250;2023-05-10T05:44:18;13.40;99.90
18041;DHT22;9145;48.588;9.250;2023-05-10T05:46:45;13.50;99.90
18041;DHT22;9145;48.588;9.250;2023-05-10T05:49:12;13.40;99.90
18041;DHT22;9145;48.588;9.250;2023-05-10T05:51:39;13.40;99.90
18041;DHT22;9145;48.588;9.250;2023-05-10T05:54:05;13.40;99.90
18041;DHT22;9145;48.588;9.250;2023-05-10T05:56:32;13.40;99.90
18041;DHT22;9145;48.588;9.250;2023-05-10T05:58:59;13.30;99.90
18041;DHT22;9145;48.588;9.250;2023-05-10T06:01:27;13.30;99.90
18041;DHT22;9145;48.588;9.250;2023-05-10T06:03:54;13.30;99.90
18041;DHT22;9145;48.588;9.250;2023-05-10T06:06:21;13.30;99.90
18041;DHT22;9145;48.588;9.250;2023-05-10T06:08:48;13.30;99.90
18041;DHT22;9145;48.588;9.250;2023-05-10T06:11:15;13.30;99.90
18041;DHT22;9145;48.588;9.250;2023-05-10T06:16:17;13.30;99.90
18041;DHT22;9145;48.588;9.250;2023-05-10T06:18:45;13.30;99.90
18041;DHT22;9145;48.588;9.250;2023-05-10T06:21:12;13.40;99.90
18041;DHT22;9145;48.588;9.250;2023-05-10T06:23:39;13.50;99.90
18041;DHT22;9145;48.588;9.250;2023-05-10T06:26:05;13.50;99.90
18041;DHT22;9145;48.588;9.250;2023-05-10T06:28:32;13.50;99.90
18041;DHT22;9145;48.588;9.250;2023-05-10T06:30:59;13.40;99.90
18041;DHT22;9145;48.588;9.250;2023-05-10T06:33:26;13.40;99.90
18041;DHT22;9145;48.588;9.250;2023-05-10T06:35:54;13.50;99.90
18041;DHT22;9145;48.588;9.250;2023-05-10T06:38:21;13.50;99.90
18041;DHT22;9145;48.588;9.250;2023-05-10T06:40:48;13.50;99.90
18041;DHT22;9145;48.588;9.250;2023-05-10T06:43:14;13.60;99.90
18041;DHT22;9145;48.588;9.250;2023-05-10T06:45:41;13.60;99.90
18041;DHT22;9145;48.588;9.250;2023-05-10T06:48:08;13.60;99.90
18041;DHT22;9145;48.588;9.250;2023-05-10T06:50:35;13.70;99.90
18041;DHT22;9145;48.588;9.250;2023-05-10T06:53:03;13.80;99.90
18041;DHT22;9145;48.588;9.250;2023-05-10T06:55:30;13.70;99.90
18041;DHT22;9145;48.588;9.250;2023-05-10T06:57:56;13.80;99.90
18041;DHT22;9145;48.588;9.250;2023-05-10T07:00:23;13.90;99.90
18041;DHT22;9145;48.588;9.250;2023-05-10T07:02:50;13.90;99.90
18041;DHT22;9145;48.588;9.250;2023-05-10T07:05:17;13.90;99.90
18041;DHT22;9145;48.588;9.250;2023-05-10T07:07:45;13.90;99.90
18041;DHT22;9145;48.588;9.250;2023-05-10T07:10:13;14.00;99.90
18041;DHT22;9145;48.588;9.250;2023-05-10T07:12:40;14.10;99.90
18041;DHT22;9145;48.588;9.250;2023-05-10T07:15:08;14.20;99.90
18041;DHT22;9145;48.588;9.250;2023-05-10T07:17:35;14.10;99.90
18041;DHT22;9145;48.588;9.250;2023-05-10T07:20:02;14.00;99.90
18041;DHT22;9145;48.588;9.250;2023-05-10T07:22:29;14.10;99.90
18041;DHT22;9145;48.588;9.250;2023-05-10T07:24:55;14.10;99.90
18041;DHT22;9145;48.588;9.250;2023-05-10T07:27:23;14.20;99.90
18041;DHT22;9145;48.588;9.250;2023-05-10T07:29:50;14.20;99.90
18041;DHT22;9145;48.588;9.250;2023-05-10T07:32:17;14.30;99.90
18041;DHT22;9145;48.588;9.250;2023-05-10T07:34:44;14.40;99.90
18041;DHT22;9145;48.588;9.250;2023-05-10T07:37:10;14.30;99.90
18041;DHT22;9145;48.588;9.250;2023-05-10T07:39:37;14.40;99.90
18041;DHT22;9145;48.588;9.250;2023-05-10T07:42:04;14.40;99.90
18041;DHT22;9145;48.588;9.250;2023-05-10T07:44:32;14.30;99.90
18041;DHT22;9145;48.588;9.250;2023-05-10T07:46:59;14.40;99.90
18041;DHT22;9145;48.588;9.250;2023-05-10T07:49:26;14.40;99.90
18041;DHT22;9145;48.588;9.250;2023-05-10T07:51:52;14.40;99.90
18041;DHT22;9145;48.588;9.250;2023-05-10T07:54:19;14.30;99.90
18041;DHT22;9145;48.588;9.250;2023-05-10T07:56:47;14.20;99.90
18041;DHT22;9145;48.588;9.250;2023-05-10T07:59:15;14.30;99.90
18041;DHT22;9145;48.588;9.250;2023-05-10T08:01:44;14.30;99.90
18041;DHT22;9145;48.588;9.250;2023-05-10T08:04:11;14.40;99.90
18041;DHT22;9145;48.588;9.250;2023-05-10T08:06:38;14.40;99.90
18041;DHT22;9145;48.588;9.250;2023-05-10T08:09:04;14.40;99.90
18041;DHT22;9145;48.588;9.250;2023-05-10T08:11:31;14.40;99.90
18041;DHT22;9145;48.588;9.250;2023-05-10T08:13:58;14.40;99.90
18041;DHT22;9145;48.588;9.250;2023-05-10T08:16:25;14.40;99.90
18041;DHT22;9145;48.588;9.250;2023-05-10T08:18:53;14.40;99.90
18041;DHT22;9145;48.588;9.250;2023-05-10T08:21:20;14.50;99.90
18041;DHT22;9145;48.588;9.250;2023-05-10T08:23:47;14.50;99.90
18041;DHT22;9145;48.588;9.250;2023-05-10T08:26:14;14.60;99.90
18041;DHT22;9145;48.588;9.250;2023-05-10T08:28:41;14.40;99.90
18041;DHT22;9145;48.588;9.250;2023-05-10T08:31:08;14.50;99.90
18041;DHT22;9145;48.588;9.250;2023-05-10T08:33:35;14.60;99.90
18041;DHT22;9145;48.588;9.250;2023-05-10T08:36:03;14.70;99.90
18041;DHT22;9145;48.588;9.250;2023-05-10T08:38:30;14.70;99.90
18041;DHT22;9145;48.588;9.250;2023-05-10T08:40:57;14.80;99.90
18041;DHT22;9145;48.588;9.250;2023-05-10T08:43:27;14.80;99.90
18041;DHT22;9145;48.588;9.250;2023-05-10T08:45:55;14.90;99.90
18041;DHT22;9145;48.588;9.250;2023-05-10T08:48:24;15.00;99.90
18041;DHT22;9145;48.588;9.250;2023-05-10T08:50:53;15.20;99.90
18041;DHT22;9145;48.588;9.250;2023-05-10T08:53:24;15.10;99.90
18041;DHT22;9145;48.588;9.250;2023-05-10T08:55:52;15.20;99.90
18041;DHT22;9145;48.588;9.250;2023-05-10T08:58:19;15.30;99.90
18041;DHT22;9145;48.588;9.250;2023-05-10T09:00:48;15.30;99.90
18041;DHT22;9145;48.588;9.250;2023-05-10T09:03:15;15.40;99.90
18041;DHT22;9145;48.588;9.250;2023-05-10T09:05:42;15.50;99.90
18041;DHT22;9145;48.588;9.250;2023-05-10T09:08:10;15.50;99.90
18041;DHT22;9145;48.588;9.250;2023-05-10T09:10:39;15.60;99.90
18041;DHT22;9145;48.588;9.250;2023-05-10T09:13:07;15.70;99.90
18041;DHT22;9145;48.588;9.250;2023-05-10T09:15:36;15.70;99.90
18041;DHT22;9145;48.588;9.250;2023-05-10T09:18:03;15.70;99.90
18041;DHT22;9145;48.588;9.250;2023-05-10T09:20:30;15.50;99.90
18041;DHT22;9145;48.588;9.250;2023-05-10T09:22:56;15.50;99.90
18041;DHT22;9145;48.588;9.250;2023-05-10T09:25:23;15.50;99.90
18041;DHT22;9145;48.588;9.250;2023-05-10T09:27:52;15.40;99.90
18041;DHT22;9145;48.588;9.250;2023-05-10T09:30:24;15.50;99.90
18041;DHT22;9145;48.588;9.250;2023-05-10T09:32:51;15.50;99.90
18041;DHT22;9145;48.588;9.250;2023-05-10T09:35:20;15.60;99.90
18041;DHT22;9145;48.588;9.250;2023-05-10T09:37:48;15.60;99.90
18041;DHT22;9145;48.588;9.250;2023-05-10T09:40:17;15.70;99.90
18041;DHT22;9145;48.588;9.250;2023-05-10T09:42:53;15.70;99.90
18041;DHT22;9145;48.588;9.250;2023-05-10T09:45:21;15.80;99.90
18041;DHT22;9145;48.588;9.250;2023-05-10T09:47:48;15.70;99.90
18041;DHT22;9145;48.588;9.250;2023-05-10T09:50:15;15.80;99.90
18041;DHT22;9145;48.588;9.250;2023-05-10T09:52:49;15.80;99.90
18041;DHT22;9145;48.588;9.250;2023-05-10T09:55:17;15.90;99.90
18041;DHT22;9145;48.588;9.250;2023-05-10T09:57:45;16.00;99.90
18041;DHT22;9145;48.588;9.250;2023-05-10T10:00:18;16.00;99.90
18041;DHT22;9145;48.588;9.250;2023-05-10T10:02:46;16.10;99.90
18041;DHT22;9145;48.588;9.250;2023-05-10T10:05:13;16.00;99.90
18041;DHT22;9145;48.588;9.250;2023-05-10T10:07:40;16.00;99.90
18041;DHT22;9145;48.588;9.250;2023-05-10T10:10:08;16.00;99.90
18041;DHT22;9145;48.588;9.250;2023-05-10T10:12:38;16.10;99.90
18041;DHT22;9145;48.588;9.250;2023-05-10T10:15:07;16.30;99.90
18041;DHT22;9145;48.588;9.250;2023-05-10T10:17:36;16.30;99.90
18041;DHT22;9145;48.588;9.250;2023-05-10T10:20:04;16.40;99.90
18041;DHT22;9145;48.588;9.250;2023-05-10T10:22:31;16.70;99.90
18041;DHT22;9145;48.588;9.250;2023-05-10T10:24:58;16.80;99.90
18041;DHT22;9145;48.588;9.250;2023-05-10T10:27:32;17.00;99.90
18041;DHT22;9145;48.588;9.250;2023-05-10T10:30:06;17.00;99.90
18041;DHT22;9145;48.588;9.250;2023-05-10T10:33:01;16.80;99.90
18041;DHT22;9145;48.588;9.250;2023-05-10T10:35:33;16.70;99.90
18041;DHT22;9145;48.588;9.250;2023-05-10T10:38:01;16.50;99.90
18041;DHT22;9145;48.588;9.250;2023-05-10T10:40:29;16.30;99.90
18041;DHT22;9145;48.588;9.250;2023-05-10T10:42:57;16.00;99.90
18041;DHT22;9145;48.588;9.250;2023-05-10T10:45:24;15.70;99.90
18041;DHT22;9145;48.588;9.250;2023-05-10T10:48:21;15.40;99.90
18041;DHT22;9145;48.588;9.250;2023-05-10T10:50:56;15.30;99.90
18041;DHT22;9145;48.588;9.250;2023-05-10T10:53:26;15.20;99.90
18041;DHT22;9145;48.588;9.250;2023-05-10T10:56:04;15.10;99.90
18041;DHT22;9145;48.588;9.250;2023-05-10T10:58:33;14.90;99.90
18041;DHT22;9145;48.588;9.250;2023-05-10T11:01:14;14.90;99.90
18041;DHT22;9145;48.588;9.250;2023-05-10T11:04:18;15.00;99.90
18041;DHT22;9145;48.588;9.250;2023-05-10T11:06:46;14.90;99.90
18041;DHT22;9145;48.588;9.250;2023-05-10T11:09:12;14.90;99.90
18041;DHT22;9145;48.588;9.250;2023-05-10T11:11:51;14.90;99.90
18041;DHT22;9145;48.588;9.250;2023-05-10T11:14:20;14.70;99.90
18041;DHT22;9145;48.588;9.250;2023-05-10T11:16:48;14.50;99.90
18041;DHT22;9145;48.588;9.250;2023-05-10T11:19:17;14.30;99.90
18041;DHT22;9145;48.588;9.250;2023-05-10T11:21:46;14.10;99.90
18041;DHT22;9145;48.588;9.250;2023-05-10T11:24:15;13.80;99.90
18041;DHT22;9145;48.588;9.250;2023-05-10T11:26:42;13.20;99.90
18041;DHT22;9145;48.588;9.250;2023-05-10T11:29:09;12.90;99.90
18041;DHT22;9145;48.588;9.250;2023-05-10T11:31:42;12.70;99.90
18041;DHT22;9145;48.588;9.250;2023-05-10T11:34:09;12.40;99.90
18041;DHT22;9145;48.588;9.250;2023-05-10T11:36:37;12.30;99.90
18041;DHT22;9145;48.588;9.250;2023-05-10T11:39:05;12.30;99.90
18041;DHT22;9145;48.588;9.250;2023-05-10T11:41:32;12.20;99.90
18041;DHT22;9145;48.588;9.250;2023-05-10T11:43:58;12.30;99.90
18041;DHT22;9145;48.588;9.250;2023-05-10T11:46:27;12.40;99.90
18041;DHT22;9145;48.588;9.250;2023-05-10T11:48:58;12.50;99.90
18041;DHT22;9145;48.588;9.250;2023-05-10T11:51:27;12.60;99.90
18041;DHT22;9145;48.588;9.250;2023-05-10T11:53:56;12.60;99.90
18041;DHT22;9145;48.588;9.250;2023-05-10T11:56:23;12.60;99.90
18041;DHT22;9145;48.588;9.250;2023-05-10T11:58:55;12.70;99.90
18041;DHT22;9145;48.588;9.250;2023-05-10T12:01:23;12.80;99.90
18041;DHT22;9145;48.588;9.250;2023-05-10T12:03:50;13.00;99.90
18041;DHT22;9145;48.588;9.250;2023-05-10T12:06:18;13.10;99.90
18041;DHT22;9145;48.588;9.250;2023-05-10T12:08:46;13.30;99.90
18041;DHT22;9145;48.588;9.250;2023-05-10T12:11:14;13.40;99.90
18041;DHT22;9145;48.588;9.250;2023-05-10T12:13:43;13.40;99.90
18041;DHT22;9145;48.588;9.250;2023-05-10T12:16:16;13.60;99.90
18041;DHT22;9145;48.588;9.250;2023-05-10T12:18:44;13.80;99.90
18041;DHT22;9145;48.588;9.250;2023-05-10T12:21:11;13.90;99.90
18041;DHT22;9145;48.588;9.250;2023-05-10T12:23:39;13.80;99.90
18041;DHT22;9145;48.588;9.250;2023-05-10T12:26:06;13.90;99.90
18041;DHT22;9145;48.588;9.250;2023-05-10T12:28:37;14.00;99.90
18041;DHT22;9145;48.588;9.250;2023-05-10T12:31:05;14.10;99.90
18041;DHT22;9145;48.588;9.250;2023-05-10T12:33:36;14.20;99.90
18041;DHT22;9145;48.588;9.250;2023-05-10T12:36:05;14.30;99.90
18041;DHT22;9145;48.588;9.250;2023-05-10T12:38:33;14.50;99.90
18041;DHT22;9145;48.588;9.250;2023-05-10T12:41:01;14.70;99.90
18041;DHT22;9145;48.588;9.250;2023-05-10T12:43:29;14.80;99.90
18041;DHT22;9145;48.588;9.250;2023-05-10T12:45:57;14.90;99.90
18041;DHT22;9145;48.588;9.250;2023-05-10T12:48:24;14.90;99.90
18041;DHT22;9145;48.588;9.250;2023-05-10T12:50:51;15.10;99.90
18041;DHT22;9145;48.588;9.250;2023-05-10T12:53:18;15.20;99.90
18041;DHT22;9145;48.588;9.250;2023-05-10T12:55:51;15.30;99.90
18041;DHT22;9145;48.588;9.250;2023-05-10T12:58:18;15.40;99.90
18041;DHT22;9145;48.588;9.250;2023-05-10T13:00:45;15.50;99.90
18041;DHT22;9145;48.588;9.250;2023-05-10T13:03:12;15.50;99.90
18041;DHT22;9145;48.588;9.250;2023-05-10T13:05:40;15.50;99.90
18041;DHT22;9145;48.588;9.250;2023-05-10T13:08:06;15.40;99.90
18041;DHT22;9145;48.588;9.250;2023-05-10T13:10:33;15.30;99.90
18041;DHT22;9145;48.588;9.250;2023-05-10T13:13:01;15.40;99.90
18041;DHT22;9145;48.588;9.250;2023-05-10T13:15:28;15.50;99.90
18041;DHT22;9145;48.588;9.250;2023-05-10T13:17:55;15.50;99.90
18041;DHT22;9145;48.588;9.250;2023-05-10T13:20:22;15.60;99.90
18041;DHT22;9145;48.588;9.250;2023-05-10T13:22:50;15.60;99.90
18041;DHT22;9145;48.588;9.250;2023-05-10T13:25:16;15.60;99.90
18041;DHT22;9145;48.588;9.250;2023-05-10T13:27:43;15.90;99.90
18041;DHT22;9145;48.588;9.250;2023-05-10T13:30:12;15.80;99.90
18041;DHT22;9145;48.588;9.250;2023-05-10T13:32:39;15.80;99.90
18041;DHT22;9145;48.588;9.250;2023-05-10T13:35:06;15.90;99.90
18041;DHT22;9145;48.588;9.250;2023-05-10T13:37:33;16.00;99.90
18041;DHT22;9145;48.588;9.250;2023-05-10T13:40:03;15.90;99.90
18041;DHT22;9145;48.588;9.250;2023-05-10T13:42:30;16.00;99.90
18041;DHT22;9145;48.588;9.250;2023-05-10T13:44:58;16.00;99.90
18041;DHT22;9145;48.588;9.250;2023-05-10T13:47:27;16.10;99.90
18041;DHT22;9145;48.588;9.250;2023-05-10T13:49:54;16.00;99.90
18041;DHT22;9145;48.588;9.250;2023-05-10T13:52:21;15.90;99.90
18041;DHT22;9145;48.588;9.250;2023-05-10T13:54:48;15.90;99.90
18041;DHT22;9145;48.588;9.250;2023-05-10T13:57:15;15.80;99.90
18041;DHT22;9145;48.588;9.250;2023-05-10T13:59:42;15.70;99.90
18041;DHT22;9145;48.588;9.250;2023-05-10T14:02:09;15.60;99.90
18041;DHT22;9145;48.588;9.250;2023-05-10T14:04:37;15.80;99.90
18041;DHT22;9145;48.588;9.250;2023-05-10T14:07:04;15.80;99.90
18041;DHT22;9145;48.588;9.250;2023-05-10T14:09:31;15.80;99.90
18041;DHT22;9145;48.588;9.250;2023-05-10T14:11:58;15.80;99.90
18041;DHT22;9145;48.588;9.250;2023-05-10T14:14:24;15.80;99.90
18041;DHT22;9145;48.588;9.250;2023-05-10T14:16:51;15.80;99.90
18041;DHT22;9145;48.588;9.250;2023-05-10T14:19:18;15.80;99.90
18041;DHT22;9145;48.588;9.250;2023-05-10T14:21:46;15.90;99.90
18041;DHT22;9145;48.588;9.250;2023-05-10T14:24:13;16.00;99.90
18041;DHT22;9145;48.588;9.250;2023-05-10T14:26:40;16.00;99.90
18041;DHT22;9145;48.588;9.250;2023-05-10T14:29:07;16.10;99.90
18041;DHT22;9145;48.588;9.250;2023-05-10T14:31:33;16.20;99.90
18041;DHT22;9145;48.588;9.250;2023-05-10T14:34:00;16.30;99.90
18041;DHT22;9145;48.588;9.250;2023-05-10T14:36:28;16.30;99.90
18041;DHT22;9145;48.588;9.250;2023-05-10T14:38:56;16.40;99.90
18041;DHT22;9145;48.588;9.250;2023-05-10T14:41:23;16.50;99.90
18041;DHT22;9145;48.588;9.250;2023-05-10T14:43:50;16.50;99.90
18041;DHT22;9145;48.588;9.250;2023-05-10T14:46:17;16.50;99.90
18041;DHT22;9145;48.588;9.250;2023-05-10T14:48:44;16.40;99.90
18041;DHT22;9145;48.588;9.250;2023-05-10T14:51:11;16.40;99.90
18041;DHT22;9145;48.588;9.250;2023-05-10T14:53:37;16.40;99.90
18041;DHT22;9145;48.588;9.250;2023-05-10T14:56:06;16.30;99.90
18041;DHT22;9145;48.588;9.250;2023-05-10T14:58:33;16.40;99.90
18041;DHT22;9145;48.588;9.250;2023-05-10T15:01:00;16.50;99.90
18041;DHT22;9145;48.588;9.250;2023-05-10T15:03:26;16.50;99.90
18041;DHT22;9145;48.588;9.250;2023-05-10T15:05:53;16.50;99.90
18041;DHT22;9145;48.588;9.250;2023-05-10T15:08:21;16.60;99.90
18041;DHT22;9145;48.588;9.250;2023-05-10T15:10:49;16.60;99.90
18041;DHT22;9145;48.588;9.250;2023-05-10T15:13:17;16.60;99.90
18041;DHT22;9145;48.588;9.250;2023-05-10T15:15:44;16.60;99.90
18041;DHT22;9145;48.588;9.250;2023-05-10T15:18:11;16.60;99.90
18041;DHT22;9145;48.588;9.250;2023-05-10T15:20:38;16.50;99.90
18041;DHT22;9145;48.588;9.250;2023-05-10T15:23:04;16.50;99.90
18041;DHT22;9145;48.588;9.250;2023-05-10T15:25:31;16.70;99.90
18041;DHT22;9145;48.588;9.250;2023-05-10T15:28:00;16.80;99.90
18041;DHT22;9145;48.588;9.250;2023-05-10T15:30:28;17.00;99.90
18041;DHT22;9145;48.588;9.250;2023-05-10T15:32:55;17.00;99.90
18041;DHT22;9145;48.588;9.250;2023-05-10T15:35:22;17.00;99.90
18041;DHT22;9145;48.588;9.250;2023-05-10T15:37:49;17.10;99.90
18041;DHT22;9145;48.588;9.250;2023-05-10T15:40:16;17.20;99.90
18041;DHT22;9145;48.588;9.250;2023-05-10T15:42:43;17.20;99.90
18041;DHT22;9145;48.588;9.250;2023-05-10T15:45:10;17.30;99.90
18041;DHT22;9145;48.588;9.250;2023-05-10T15:47:39;17.40;99.90
18041;DHT22;9145;48.588;9.250;2023-05-10T15:50:06;17.40;99.90
18041;DHT22;9145;48.588;9.250;2023-05-10T15:52:33;17.40;99.90
18041;DHT22;9145;48.588;9.250;2023-05-10T15:55:00;17.40;99.90